Time;durP1;ratioP1;P1;durP2;ratioP2;P2;SDS_P1;SDS_P2;PMS_P1;PMS_P2;Temp;Humidity;BMP_temperature;BMP_pressure;BME280_temperature;BME280_humidity;BME280_pressure;Samples;Min_cycle;Max_cycle;Signal;HPM_P1;HPM_P2
2023/11/27 00:00:07;;;;;;;4.85;1.65;;;16.70;49.70;;;;;;5073374;28;20272;-59
2023/11/27 00:02:33;;;;;;;2.50;1.58;;;16.70;49.10;;;;;;5072926;28;20191;-59
2023/11/27 00:05:00;;;;;;;2.85;1.70;;;16.70;49.10;;;;;;5073238;28;20282;-59
2023/11/27 00:07:29;;;;;;;3.08;1.70;;;16.70;49.80;;;;;;5073307;28;20187;-59
2023/11/27 00:09:55;;;;;;;2.75;1.58;;;16.60;49.00;;;;;;5072323;28;20234;-56
2023/11/27 00:12:23;;;;;;;2.90;1.67;;;16.70;49.80;;;;;;5072503;28;20221;-59
2023/11/27 00:14:50;;;;;;;1.83;1.40;;;16.60;49.00;;;;;;5073270;28;20303;-60
2023/11/27 00:17:17;;;;;;;3.67;1.67;;;16.70;49.90;;;;;;5072756;28;20183;-59
2023/11/27 00:19:44;;;;;;;4.47;1.60;;;16.70;49.30;;;;;;5073136;28;20221;-59
2023/11/27 00:22:11;;;;;;;2.47;1.60;;;16.70;50.10;;;;;;5072959;28;20187;-59
2023/11/27 00:24:40;;;;;;;1.65;1.25;;;16.60;49.30;;;;;;5072666;28;20218;-59
2023/11/27 00:27:07;;;;;;;2.78;1.48;;;16.70;49.40;;;;;;5072766;28;20221;-60
2023/11/27 00:29:34;;;;;;;2.00;1.48;;;16.70;49.50;;;;;;5072851;28;20217;-55
2023/11/27 00:32:01;;;;;;;2.00;1.35;;;16.60;50.10;;;;;;5072465;28;20274;-60
2023/11/27 00:34:28;;;;;;;2.25;1.48;;;16.70;49.50;;;;;;5072840;28;20210;-59
2023/11/27 00:36:55;;;;;;;1.92;1.30;;;16.70;50.20;;;;;;5072692;28;20265;-57
2023/11/27 00:39:22;;;;;;;3.15;1.45;;;16.70;49.70;;;;;;5072412;28;20215;-59
2023/11/27 00:41:50;;;;;;;2.97;1.40;;;16.70;49.60;;;;;;5072600;28;20222;-60
2023/11/27 00:44:17;;;;;;;3.75;1.05;;;16.70;50.30;;;;;;5072682;28;20219;-59
2023/11/27 00:46:44;;;;;;;2.80;1.45;;;16.70;49.70;;;;;;5072135;28;20277;-59
2023/11/27 00:49:12;;;;;;;1.83;1.23;;;16.70;49.70;;;;;;5072568;28;20215;-59
2023/11/27 00:51:39;;;;;;;2.58;1.20;;;16.60;49.70;;;;;;5072120;28;20191;-58
2023/11/27 00:54:06;;;;;;;2.55;1.50;;;16.60;50.30;;;;;;5072105;28;20301;-60
2023/11/27 00:56:34;;;;;;;2.80;1.33;;;16.60;49.60;;;;;;5072494;28;20191;-59
2023/11/27 00:59:03;;;;;;;1.50;1.33;;;16.60;50.30;;;;;;5072434;28;20226;-59
2023/11/27 01:01:30;;;;;;;2.15;1.23;;;16.60;49.70;;;;;;5072019;28;20309;-59
2023/11/27 01:03:57;;;;;;;2.90;1.33;;;16.60;49.70;;;;;;5072201;28;20183;-59
2023/11/27 01:06:24;;;;;;;1.23;1.00;;;16.60;50.40;;;;;;5072321;28;20195;-60
2023/11/27 01:08:51;;;;;;;1.85;1.25;;;16.60;50.30;;;;;;5071664;28;20191;-57
2023/11/27 01:11:18;;;;;;;1.58;1.10;;;16.60;49.80;;;;;;5072178;28;20278;-59
2023/11/27 01:13:45;;;;;;;2.50;1.50;;;16.60;50.50;;;;;;5072529;28;20216;-58
2023/11/27 01:16:13;;;;;;;2.72;1.30;;;16.60;50.60;;;;;;5071880;28;20302;-57
2023/11/27 01:18:40;;;;;;;1.55;1.10;;;16.60;50.60;;;;;;5071841;28;20229;-62
2023/11/27 01:21:08;;;;;;;1.98;1.23;;;16.60;50.00;;;;;;5072192;28;20723;-57
2023/11/27 01:23:34;;;;;;;2.60;1.33;;;16.60;50.00;;;;;;5077560;28;20186;-60
2023/11/27 01:26:01;;;;;;;1.75;1.15;;;16.60;50.00;;;;;;5079019;28;20707;-59
2023/11/27 01:28:28;;;;;;;3.35;1.13;;;16.60;50.10;;;;;;5078907;28;20360;-60
2023/11/27 01:30:56;;;;;;;2.05;1.40;;;16.60;50.00;;;;;;5078608;28;20582;-56
2023/11/27 01:33:24;;;;;;;2.35;1.35;;;16.60;50.00;;;;;;5078612;28;20273;-58
2023/11/27 01:35:51;;;;;;;1.70;1.33;;;16.60;50.10;;;;;;5078721;28;20305;-59
2023/11/27 01:38:17;;;;;;;1.75;0.95;;;16.60;50.10;;;;;;5078426;28;20190;-58
2023/11/27 01:40:45;;;;;;;2.17;1.30;;;16.60;50.10;;;;;;5078327;28;20228;-58
2023/11/27 01:43:15;;;;;;;1.92;1.10;;;16.60;50.90;;;;;;5078941;28;20194;-58
2023/11/27 01:45:42;;;;;;;3.05;1.35;;;16.60;50.20;;;;;;5078324;28;20229;-59
2023/11/27 01:48:10;;;;;;;3.72;1.30;;;16.60;50.30;;;;;;5078634;28;20274;-58
2023/11/27 01:50:38;;;;;;;4.18;1.38;;;16.60;50.30;;;;;;5078516;28;20309;-59
2023/11/27 01:53:05;;;;;;;3.65;1.50;;;16.60;50.30;;;;;;5078159;28;20716;-59
2023/11/27 01:55:32;;;;;;;3.15;1.33;;;16.60;50.30;;;;;;5078548;28;20220;-57
2023/11/27 01:57:59;;;;;;;2.10;1.33;;;16.60;50.30;;;;;;5078509;28;20218;-59
2023/11/27 02:00:26;;;;;;;2.30;1.48;;;16.60;50.40;;;;;;5077703;28;21039;-59
2023/11/27 02:02:55;;;;;;;2.33;1.15;;;16.60;50.30;;;;;;5078430;28;20205;-55
2023/11/27 02:05:22;;;;;;;2.70;1.30;;;16.60;51.10;;;;;;5078508;28;20325;-59
2023/11/27 02:07:51;;;;;;;2.72;1.35;;;16.60;50.40;;;;;;5078085;28;20222;-58
2023/11/27 02:10:18;;;;;;;1.77;1.10;;;16.60;50.40;;;;;;5078012;28;20317;-60
2023/11/27 02:12:45;;;;;;;3.45;1.23;;;16.60;50.40;;;;;;5078117;28;20201;-61
2023/11/27 02:15:12;;;;;;;2.90;1.23;;;16.60;51.20;;;;;;5077891;28;20218;-59
2023/11/27 02:17:39;;;;;;;2.53;1.27;;;16.60;51.20;;;;;;5078119;28;20191;-59
2023/11/27 02:20:07;;;;;;;2.72;1.27;;;16.60;51.20;;;;;;5078315;28;20190;-58
2023/11/27 02:22:34;;;;;;;2.10;1.15;;;16.60;50.60;;;;;;5077788;28;20268;-58
2023/11/27 02:25:02;;;;;;;1.75;1.20;;;16.60;50.60;;;;;;5078158;28;20270;-56
2023/11/27 02:27:29;;;;;;;3.60;1.25;;;16.60;51.20;;;;;;5078266;28;20186;-58
2023/11/27 02:29:56;;;;;;;4.22;1.33;;;16.60;50.70;;;;;;5077442;28;20723;-57
2023/11/27 02:32:23;;;;;;;2.78;1.13;;;16.60;50.70;;;;;;5078021;28;20281;-56
2023/11/27 02:34:50;;;;;;;3.17;1.15;;;16.60;51.40;;;;;;5074433;28;20275;-59
2023/11/27 02:37:17;;;;;;;2.50;1.20;;;16.60;51.40;;;;;;5074731;28;20302;-62
2023/11/27 02:39:44;;;;;;;2.58;1.05;;;16.60;50.80;;;;;;5074624;28;20187;-58
2023/11/27 02:42:12;;;;;;;4.35;1.23;;;16.60;51.40;;;;;;5075006;28;20234;-59
2023/11/27 02:44:39;;;;;;;2.30;1.15;;;16.60;51.40;;;;;;5074459;28;20673;-58
2023/11/27 02:47:06;;;;;;;2.17;0.90;;;16.60;50.90;;;;;;5074632;28;20306;-60
2023/11/27 02:49:33;;;;;;;2.70;1.48;;;16.60;50.90;;;;;;5074839;28;20187;-58
2023/11/27 02:52:00;;;;;;;4.53;1.90;;;16.60;50.90;;;;;;5074225;28;20692;-59
2023/11/27 02:54:27;;;;;;;2.85;1.23;;;16.60;50.90;;;;;;5074650;28;20270;-58
2023/11/27 02:56:54;;;;;;;3.70;1.42;;;16.60;51.00;;;;;;5074734;28;20663;-59
2023/11/27 02:59:22;;;;;;;4.43;1.40;;;16.60;50.90;;;;;;5074486;28;20184;-55
2023/11/27 03:01:49;;;;;;;3.85;1.35;;;16.60;50.90;;;;;;5074314;28;20320;-59
2023/11/27 03:04:16;;;;;;;3.67;1.15;;;16.60;51.00;;;;;;5074473;28;20270;-62
2023/11/27 03:06:43;;;;;;;3.53;1.13;;;16.60;51.70;;;;;;5074490;28;20211;-59
2023/11/27 03:09:14;;;;;;;3.08;1.48;;;16.60;51.00;;;;;;5073939;28;20230;-61
2023/11/27 03:11:42;;;;;;;2.75;1.20;;;16.60;51.10;;;;;;5073908;28;20230;-58
2023/11/27 03:14:09;;;;;;;3.47;1.48;;;16.60;51.10;;;;;;5074446;28;20209;-58
2023/11/27 03:16:38;;;;;;;3.03;1.35;;;16.60;51.20;;;;;;5074008;28;20289;-59
2023/11/27 03:19:05;;;;;;;3.35;1.27;;;16.60;51.20;;;;;;5074295;28;20191;-57
2023/11/27 03:21:32;;;;;;;3.95;1.30;;;16.60;51.30;;;;;;5074005;28;20244;-58
2023/11/27 03:23:59;;;;;;;1.98;1.00;;;16.60;51.30;;;;;;5073873;28;20219;-59
2023/11/27 03:26:26;;;;;;;4.20;1.10;;;16.60;51.30;;;;;;5074017;28;20298;-59
2023/11/27 03:28:53;;;;;;;4.38;1.10;;;16.60;51.30;;;;;;5073979;28;20209;-59
2023/11/27 03:31:20;;;;;;;3.20;1.10;;;16.60;51.30;;;;;;5073759;28;20318;-59
2023/11/27 03:33:49;;;;;;;4.63;1.17;;;16.60;52.00;;;;;;5073820;28;20209;-62
2023/11/27 03:36:17;;;;;;;3.13;1.10;;;16.60;51.40;;;;;;5073874;28;20219;-59
2023/11/27 03:38:44;;;;;;;2.35;1.13;;;16.50;52.00;;;;;;5073611;28;20222;-57
2023/11/27 03:41:17;;;;;;;4.93;0.95;;;16.60;51.40;;;;;;5073691;28;20222;-61
2023/11/27 03:43:44;;;;;;;3.53;1.25;;;16.60;52.10;;;;;;5073625;28;20187;-58
2023/11/27 03:46:11;;;;;;;2.55;1.10;;;16.60;51.40;;;;;;5073376;28;20197;-60
2023/11/27 03:48:39;;;;;;;2.45;1.17;;;16.60;51.50;;;;;;5073520;28;20306;-62
2023/11/27 03:51:08;;;;;;;2.45;1.55;;;16.50;51.50;;;;;;5073614;28;20257;-58
2023/11/27 03:53:36;;;;;;;2.22;1.00;;;16.50;51.40;;;;;;5073587;28;20215;-57
2023/11/27 03:56:04;;;;;;;3.47;1.33;;;16.60;51.40;;;;;;5073611;28;20187;-61
2023/11/27 03:58:31;;;;;;;2.33;1.10;;;16.60;51.50;;;;;;5073255;28;20715;-61
2023/11/27 04:00:58;;;;;;;3.30;1.48;;;16.60;51.50;;;;;;5073188;28;20191;-61
2023/11/27 04:03:25;;;;;;;3.53;1.15;;;16.60;52.30;;;;;;5073570;28;20230;-59
2023/11/27 04:05:52;;;;;;;3.30;1.10;;;16.60;51.50;;;;;;5071972;28;20190;-60
2023/11/27 04:08:20;;;;;;;2.55;1.10;;;16.60;51.60;;;;;;5063744;28;20604;-59
2023/11/27 04:10:47;;;;;;;2.45;1.08;;;16.60;51.60;;;;;;5060775;28;20254;-59
2023/11/27 04:13:14;;;;;;;3.97;1.55;;;16.50;51.60;;;;;;5073282;28;20218;-58
2023/11/27 04:15:42;;;;;;;2.13;1.02;;;16.50;52.30;;;;;;5072687;28;20201;-60
2023/11/27 04:18:10;;;;;;;2.78;1.15;;;16.50;51.60;;;;;;5073130;28;20249;-59
2023/11/27 04:20:38;;;;;;;2.97;1.20;;;16.60;51.70;;;;;;5072749;28;20187;-59
2023/11/27 04:23:05;;;;;;;2.17;1.10;;;16.60;51.70;;;;;;5072179;28;20696;-61
2023/11/27 04:25:33;;;;;;;1.90;1.05;;;16.50;51.70;;;;;;5072966;28;20274;-61
2023/11/27 04:28:00;;;;;;;4.75;1.25;;;16.50;51.70;;;;;;5072679;28;20743;-57
2023/11/27 04:30:28;;;;;;;2.53;0.80;;;16.60;52.50;;;;;;5072478;28;20183;-59
2023/11/27 04:32:55;;;;;;;2.05;0.93;;;16.60;52.50;;;;;;5072420;28;20215;-59
2023/11/27 04:35:23;;;;;;;3.05;0.90;;;16.60;52.40;;;;;;5072441;28;20572;-61
2023/11/27 04:37:50;;;;;;;1.75;0.90;;;16.50;51.70;;;;;;5072502;28;20219;-59
2023/11/27 04:40:17;;;;;;;4.22;1.17;;;16.50;51.70;;;;;;5072350;28;20230;-57
2023/11/27 04:42:45;;;;;;;2.42;1.30;;;16.60;51.80;;;;;;5072535;28;20230;-61
2023/11/27 04:45:13;;;;;;;2.03;1.10;;;16.50;51.70;;;;;;5072280;28;20193;-62
2023/11/27 04:47:40;;;;;;;3.42;0.90;;;16.60;52.50;;;;;;5072564;28;20218;-61
2023/11/27 04:50:08;;;;;;;2.65;1.20;;;16.60;51.90;;;;;;5072581;28;20282;-59
2023/11/27 04:52:35;;;;;;;2.05;1.08;;;16.50;51.80;;;;;;5072099;28;20211;-62
2023/11/27 04:55:03;;;;;;;1.95;1.08;;;16.50;51.90;;;;;;5072486;28;20187;-61
2023/11/27 04:57:31;;;;;;;2.22;0.82;;;16.50;52.50;;;;;;5071905;28;20186;-60
2023/11/27 05:00:00;;;;;;;4.32;1.30;;;16.50;51.90;;;;;;5072056;28;20191;-61
2023/11/27 05:02:27;;;;;;;1.42;0.85;;;16.50;51.90;;;;;;5072335;28;20225;-56
2023/11/27 05:04:54;;;;;;;1.73;1.00;;;16.60;52.00;;;;;;5072349;28;20273;-58
2023/11/27 05:07:21;;;;;;;3.60;1.30;;;16.50;51.90;;;;;;5072007;28;20183;-61
2023/11/27 05:09:48;;;;;;;3.58;1.15;;;16.60;52.00;;;;;;5071904;28;20346;-59
2023/11/27 05:12:15;;;;;;;1.98;0.90;;;16.50;51.90;;;;;;5052041;28;20198;-61
2023/11/27 05:14:42;;;;;;;2.60;0.93;;;16.50;52.00;;;;;;5051799;28;20226;-62
2023/11/27 05:17:10;;;;;;;1.95;1.10;;;16.50;52.60;;;;;;5064852;28;20278;-61
2023/11/27 05:19:37;;;;;;;2.42;1.10;;;16.50;52.00;;;;;;5072424;28;20218;-62
2023/11/27 05:22:04;;;;;;;1.77;1.17;;;16.50;52.00;;;;;;5071849;28;20335;-58
2023/11/27 05:24:32;;;;;;;2.90;1.20;;;16.50;52.10;;;;;;5072287;28;20297;-60
2023/11/27 05:26:59;;;;;;;4.28;1.20;;;16.50;52.00;;;;;;5072139;28;20187;-61
2023/11/27 05:29:26;;;;;;;3.00;1.10;;;16.50;52.00;;;;;;5071955;28;20297;-61
2023/11/27 05:31:53;;;;;;;2.13;0.85;;;16.50;52.10;;;;;;5071879;28;20187;-61
2023/11/27 05:34:21;;;;;;;3.13;1.00;;;16.50;52.20;;;;;;5072257;28;20297;-59
2023/11/27 05:36:48;;;;;;;2.13;0.93;;;16.50;51.90;;;;;;5071737;28;20198;-61
2023/11/27 05:39:15;;;;;;;1.70;1.10;;;16.60;51.90;;;;;;5072036;28;20221;-62
2023/11/27 05:41:42;;;;;;;2.47;1.48;;;16.50;52.30;;;;;;5072028;28;20215;-60
2023/11/27 05:44:10;;;;;;;1.60;0.95;;;16.60;51.80;;;;;;5071780;28;20301;-60
2023/11/27 05:46:37;;;;;;;2.00;0.93;;;16.70;51.90;;;;;;5071966;28;20287;-63
2023/11/27 05:49:05;;;;;;;1.52;1.00;;;16.70;51.90;;;;;;5071993;28;20215;-61
2023/11/27 05:51:39;;;;;;;2.28;1.00;;;16.80;51.90;;;;;;5071586;28;20610;-59
2023/11/27 05:54:06;;;;;;;3.50;0.80;;;16.90;51.90;;;;;;5071884;28;20219;-58
2023/11/27 05:56:33;;;;;;;1.20;0.90;;;17.00;52.40;;;;;;5071649;28;20669;-62
2023/11/27 05:59:00;;;;;;;2.00;0.90;;;17.10;51.70;;;;;;5071401;28;20310;-61
2023/11/27 06:01:27;;;;;;;2.17;0.80;;;17.10;51.70;;;;;;5071777;28;20187;-61
2023/11/27 06:03:54;;;;;;;2.35;0.90;;;17.20;51.60;;;;;;5071566;28;20229;-61
2023/11/27 06:06:21;;;;;;;1.60;1.00;;;17.30;51.60;;;;;;5071419;28;20187;-62
2023/11/27 06:08:49;;;;;;;1.80;1.00;;;17.30;51.40;;;;;;5071899;28;20218;-58
2023/11/27 06:11:17;;;;;;;2.30;0.80;;;17.40;51.30;;;;;;5075395;28;20197;-59
2023/11/27 06:13:44;;;;;;;2.70;1.00;;;17.40;51.30;;;;;;5075272;28;20225;-57
2023/11/27 06:16:11;;;;;;;3.47;1.00;;;17.50;51.20;;;;;;5075409;28;20182;-62
2023/11/27 06:18:38;;;;;;;1.42;1.13;;;17.60;51.20;;;;;;5074987;28;20646;-60
2023/11/27 06:21:06;;;;;;;1.63;0.80;;;17.60;51.10;;;;;;5075007;28;20618;-59
2023/11/27 06:23:33;;;;;;;2.03;1.00;;;17.60;51.00;;;;;;5075004;28;20222;-62
2023/11/27 06:26:02;;;;;;;3.05;0.80;;;17.70;51.00;;;;;;5075265;28;20187;-62
2023/11/27 06:28:29;;;;;;;2.03;1.15;;;17.70;51.60;;;;;;5074828;28;20542;-60
2023/11/27 06:30:56;;;;;;;1.55;0.70;;;17.80;51.00;;;;;;5075165;28;20187;-61
2023/11/27 06:33:23;;;;;;;2.42;0.98;;;17.80;50.90;;;;;;5074808;28;20202;-62
2023/11/27 06:35:51;;;;;;;2.78;1.05;;;17.80;50.80;;;;;;5074617;28;20187;-60
2023/11/27 06:38:19;;;;;;;3.92;0.88;;;17.90;50.80;;;;;;5075046;28;20281;-62
2023/11/27 06:40:47;;;;;;;1.77;0.80;;;17.90;51.40;;;;;;5075165;28;20642;-60
2023/11/27 06:43:16;;;;;;;2.05;0.88;;;17.90;50.70;;;;;;5074120;28;20626;-61
2023/11/27 06:45:42;;;;;;;3.63;0.90;;;17.90;50.70;;;;;;5075045;28;20235;-62
2023/11/27 06:48:09;;;;;;;2.40;0.82;;;17.80;50.60;;;;;;5074714;28;20219;-61
2023/11/27 06:50:36;;;;;;;1.25;0.90;;;17.80;50.60;;;;;;5074672;28;20340;-61
2023/11/27 06:53:03;;;;;;;1.27;0.70;;;17.90;50.70;;;;;;5074812;28;20205;-62
2023/11/27 06:55:30;;;;;;;1.85;1.02;;;17.80;50.70;;;;;;5074721;28;20571;-62
2023/11/27 06:57:57;;;;;;;1.58;0.82;;;17.80;50.70;;;;;;5074388;28;20270;-61
2023/11/27 07:00:26;;;;;;;1.38;0.82;;;17.80;51.40;;;;;;5074535;28;20225;-59
2023/11/27 07:02:53;;;;;;;1.05;0.90;;;17.90;51.40;;;;;;5074533;28;20325;-61
2023/11/27 07:05:20;;;;;;;1.35;0.80;;;17.90;51.20;;;;;;5074273;28;20215;-62
2023/11/27 07:07:47;;;;;;;2.08;0.80;;;18.00;50.80;;;;;;5074530;28;20218;-61
2023/11/27 07:10:14;;;;;;;3.45;1.10;;;18.00;50.70;;;;;;5073915;28;20621;-61
2023/11/27 07:12:42;;;;;;;1.38;0.90;;;18.00;50.60;;;;;;5074051;28;20616;-60
2023/11/27 07:15:10;;;;;;;1.33;0.80;;;18.10;50.60;;;;;;5074475;28;20280;-62
2023/11/27 07:17:39;;;;;;;1.77;0.80;;;18.10;50.50;;;;;;5074170;28;20214;-62
2023/11/27 07:20:17;;;;;;;2.55;0.80;;;18.10;50.50;;;;;;5073145;28;20215;-62
2023/11/27 07:22:44;;;;;;;1.80;0.82;;;18.10;50.50;;;;;;5074031;28;20250;-59
2023/11/27 07:25:13;;;;;;;1.25;0.80;;;18.00;50.50;;;;;;5074168;28;20283;-62
2023/11/27 07:27:40;;;;;;;1.35;0.80;;;18.00;50.60;;;;;;5073473;28;20560;-59
2023/11/27 07:30:08;;;;;;;2.47;0.93;;;18.00;51.30;;;;;;5074107;28;20221;-62
2023/11/27 07:32:34;;;;;;;1.70;0.80;;;18.00;50.70;;;;;;5073684;28;20187;-62
2023/11/27 07:35:04;;;;;;;1.65;0.80;;;18.00;50.80;;;;;;5073716;28;20307;-62
2023/11/27 07:37:30;;;;;;;1.42;1.02;;;18.10;50.90;;;;;;5073907;28;20266;-62
2023/11/27 07:39:57;;;;;;;1.25;0.80;;;18.10;50.80;;;;;;5073509;28;20191;-61
2023/11/27 07:42:25;;;;;;;1.70;0.90;;;18.20;51.30;;;;;;5073334;28;20214;-62
2023/11/27 07:44:52;;;;;;;1.35;1.00;;;18.20;50.50;;;;;;5073434;28;20195;-59
2023/11/27 07:47:22;;;;;;;1.67;0.88;;;18.30;50.50;;;;;;5073334;28;20558;-59
2023/11/27 07:49:49;;;;;;;4.93;1.10;;;18.20;51.10;;;;;;5073177;28;20277;-61
2023/11/27 07:52:17;;;;;;;1.27;1.08;;;18.30;51.20;;;;;;5073591;28;20277;-60
2023/11/27 07:54:46;;;;;;;2.63;1.00;;;18.30;50.50;;;;;;5073220;28;20190;-61
2023/11/27 07:57:14;;;;;;;2.00;1.10;;;18.30;50.50;;;;;;5073437;28;20226;-62
2023/11/27 07:59:41;;;;;;;2.05;0.90;;;18.30;51.10;;;;;;5073408;28;20253;-60
2023/11/27 08:02:10;;;;;;;2.60;1.10;;;18.30;50.50;;;;;;5073556;28;20225;-62
2023/11/27 08:04:37;;;;;;;2.58;1.00;;;18.30;51.10;;;;;;5072946;28;20236;-61
2023/11/27 08:07:06;;;;;;;3.55;0.88;;;18.40;50.50;;;;;;5073257;28;20257;-59
2023/11/27 08:09:34;;;;;;;2.88;1.10;;;18.30;50.40;;;;;;5072978;28;20313;-61
2023/11/27 08:12:01;;;;;;;2.55;1.10;;;18.40;51.10;;;;;;5072655;28;20222;-59
2023/11/27 08:14:28;;;;;;;2.60;1.00;;;18.40;50.40;;;;;;5073381;28;20195;-63
2023/11/27 08:16:55;;;;;;;3.05;1.00;;;18.40;50.40;;;;;;5073008;28;20409;-61
2023/11/27 08:19:22;;;;;;;2.90;1.10;;;18.40;50.40;;;;;;5073049;28;20274;-62
2023/11/27 08:21:49;;;;;;;3.20;1.00;;;18.50;50.40;;;;;;5072615;28;20589;-61
2023/11/27 08:24:16;;;;;;;3.97;0.93;;;18.50;51.00;;;;;;5072488;28;20305;-60
2023/11/27 08:26:49;;;;;;;1.98;0.85;;;18.50;51.00;;;;;;5072761;28;20580;-60
2023/11/27 08:29:17;;;;;;;1.73;0.90;;;18.50;50.30;;;;;;5072852;28;20190;-62
2023/11/27 08:31:45;;;;;;;2.05;0.90;;;18.50;50.30;;;;;;5072127;28;20305;-62
2023/11/27 08:34:13;;;;;;;2.45;0.98;;;18.50;50.90;;;;;;5072377;28;20198;-62
2023/11/27 08:36:40;;;;;;;2.13;1.20;;;18.50;50.20;;;;;;5072633;28;20215;-61
2023/11/27 08:39:10;;;;;;;3.28;0.98;;;18.50;50.20;;;;;;5072657;28;20282;-62
2023/11/27 08:41:37;;;;;;;2.53;1.08;;;18.50;50.10;;;;;;5072106;28;20727;-60
2023/11/27 08:44:08;;;;;;;3.08;0.90;;;18.60;50.20;;;;;;5072553;28;20279;-61
2023/11/27 08:46:35;;;;;;;1.70;0.88;;;18.50;50.10;;;;;;5072512;28;20288;-62
2023/11/27 08:49:03;;;;;;;2.47;0.90;;;18.60;50.20;;;;;;5072215;28;20183;-62
2023/11/27 08:51:31;;;;;;;1.20;0.90;;;18.60;50.20;;;;;;5072501;28;20219;-61
2023/11/27 08:53:58;;;;;;;7.38;1.00;;;18.60;50.10;;;;;;5072394;28;20194;-60
2023/11/27 08:56:26;;;;;;;3.78;0.95;;;18.60;50.70;;;;;;5072125;28;20218;-60
2023/11/27 08:58:53;;;;;;;2.03;0.88;;;18.60;50.80;;;;;;5072046;28;20183;-61
2023/11/27 09:01:22;;;;;;;2.88;0.88;;;18.70;50.80;;;;;;5072151;28;20210;-57
2023/11/27 09:03:50;;;;;;;1.00;0.85;;;18.60;50.10;;;;;;5071618;28;20214;-61
2023/11/27 09:06:19;;;;;;;2.28;0.90;;;18.70;50.10;;;;;;5072091;28;20211;-61
2023/11/27 09:08:46;;;;;;;2.33;0.93;;;18.70;50.70;;;;;;5072103;28;20283;-61
2023/11/27 09:11:13;;;;;;;1.23;0.70;;;18.70;50.10;;;;;;5071510;28;22568;-62
2023/11/27 09:13:40;;;;;;;2.42;1.23;;;18.70;50.10;;;;;;5072162;28;20191;-62
2023/11/27 09:16:08;;;;;;;3.63;0.98;;;18.70;50.10;;;;;;5072218;28;20618;-62
2023/11/27 09:18:37;;;;;;;1.88;1.05;;;18.70;49.90;;;;;;5072037;28;20236;-61
2023/11/27 09:21:04;;;;;;;2.28;0.93;;;18.70;50.50;;;;;;5071899;28;20187;-60
2023/11/27 09:23:32;;;;;;;2.50;1.30;;;18.70;49.90;;;;;;5071792;28;20821;-61
2023/11/27 09:26:00;;;;;;;2.80;1.00;;;18.70;50.60;;;;;;5071752;28;20278;-62
2023/11/27 09:28:27;;;;;;;2.80;1.10;;;18.70;50.00;;;;;;5072082;28;20226;-61
2023/11/27 09:30:54;;;;;;;2.30;0.98;;;18.80;50.00;;;;;;5072084;28;20210;-62
2023/11/27 09:33:21;;;;;;;2.03;0.80;;;18.70;50.50;;;;;;5071631;28;20223;-62
2023/11/27 09:35:50;;;;;;;3.25;0.90;;;18.80;49.90;;;;;;5071722;28;20648;-62
2023/11/27 09:38:17;;;;;;;2.15;0.90;;;18.80;49.90;;;;;;5071935;28;20718;-62
2023/11/27 09:40:44;;;;;;;2.40;0.95;;;18.80;49.90;;;;;;5071363;28;20187;-62
2023/11/27 09:43:12;;;;;;;2.03;0.93;;;18.80;49.90;;;;;;5073064;28;20241;-61
2023/11/27 09:45:39;;;;;;;2.05;1.40;;;18.80;49.90;;;;;;5076008;28;20191;-59
2023/11/27 09:48:10;;;;;;;1.65;0.80;;;18.80;50.60;;;;;;5075199;28;20214;-62
2023/11/27 09:50:37;;;;;;;2.30;0.85;;;18.80;49.90;;;;;;5075910;28;20266;-62
2023/11/27 09:53:08;;;;;;;1.58;0.90;;;18.80;49.90;;;;;;5075598;28;20653;-59
2023/11/27 09:55:37;;;;;;;2.75;1.00;;;18.80;49.90;;;;;;5075516;28;20631;-62
2023/11/27 09:58:06;;;;;;;3.38;0.90;;;18.90;50.00;;;;;;5075895;28;20233;-61
2023/11/27 10:00:33;;;;;;;2.53;0.95;;;18.80;49.90;;;;;;5075606;28;20186;-62
2023/11/27 10:03:00;;;;;;;3.65;0.85;;;18.80;49.90;;;;;;5075364;28;20609;-61
2023/11/27 10:05:27;;;;;;;4.18;0.90;;;18.90;50.00;;;;;;5075629;28;20218;-61
2023/11/27 10:07:56;;;;;;;1.23;0.85;;;18.80;49.90;;;;;;5075746;28;20309;-62
2023/11/27 10:10:26;;;;;;;1.98;0.90;;;18.90;50.00;;;;;;5074899;28;20222;-60
2023/11/27 10:12:58;;;;;;;1.67;0.90;;;18.90;50.00;;;;;;5075318;28;20229;-62
2023/11/27 10:15:26;;;;;;;1.55;0.75;;;18.90;50.00;;;;;;5075405;28;20187;-62
2023/11/27 10:17:53;;;;;;;1.05;0.90;;;18.90;50.00;;;;;;5074917;28;20268;-59
2023/11/27 10:20:22;;;;;;;2.22;0.98;;;18.90;50.00;;;;;;5075412;28;20182;-61
2023/11/27 10:22:49;;;;;;;1.02;0.77;;;18.90;50.00;;;;;;5074687;28;20215;-59
2023/11/27 10:25:16;;;;;;;1.92;1.10;;;18.90;50.60;;;;;;5074441;28;20187;-60
2023/11/27 10:27:44;;;;;;;2.03;1.00;;;18.90;50.00;;;;;;5075045;28;20219;-59
2023/11/27 10:30:20;;;;;;;3.45;1.40;;;18.90;50.00;;;;;;5074821;28;20671;-62
2023/11/27 10:32:47;;;;;;;3.65;1.05;;;18.90;50.00;;;;;;5074636;28;20217;-62
2023/11/27 10:35:14;;;;;;;3.90;1.05;;;18.90;50.10;;;;;;5074608;28;20531;-62
2023/11/27 10:37:42;;;;;;;2.35;1.30;;;18.80;50.10;;;;;;5075053;28;20272;-59
2023/11/27 10:40:13;;;;;;;3.15;1.50;;;18.90;50.40;;;;;;5074535;28;20183;-59
2023/11/27 10:42:47;;;;;;;2.97;1.50;;;18.90;50.90;;;;;;5074936;28;20287;-58
2023/11/27 10:45:17;;;;;;;3.13;1.45;;;19.00;51.10;;;;;;5074774;28;20229;-62
2023/11/27 10:47:46;;;;;;;9.45;1.67;;;19.10;51.40;;;;;;5074541;28;20217;-61
2023/11/27 10:50:14;;;;;;;3.63;1.33;;;19.10;51.70;;;;;;5074421;28;20183;-61
2023/11/27 10:52:44;;;;;;;6.13;1.52;;;19.10;52.00;;;;;;5074339;28;20624;-61
2023/11/27 10:55:15;;;;;;;3.50;1.30;;;19.10;52.00;;;;;;5073167;28;20668;-62
2023/11/27 10:57:45;;;;;;;4.70;1.25;;;19.00;53.20;;;;;;5074729;28;20218;-60
2023/11/27 11:00:18;;;;;;;4.38;1.40;;;19.00;53.20;;;;;;5074275;28;20199;-60
2023/11/27 11:02:50;;;;;;;4.07;1.08;;;19.00;53.30;;;;;;5074228;28;20187;-61
2023/11/27 11:05:26;;;;;;;3.65;0.90;;;19.00;53.40;;;;;;5074373;28;20215;-61
2023/11/27 11:07:55;;;;;;;2.63;0.93;;;19.00;54.10;;;;;;5074285;28;20253;-60
2023/11/27 11:10:26;;;;;;;3.55;1.20;;;18.90;53.40;;;;;;5074223;28;20602;-62
2023/11/27 11:12:56;;;;;;;4.80;1.20;;;18.90;53.50;;;;;;5074254;28;20544;-61
2023/11/27 11:15:32;;;;;;;7.80;1.10;;;18.90;54.20;;;;;;5073723;28;20222;-60
2023/11/27 11:18:08;;;;;;;4.00;1.02;;;18.80;53.80;;;;;;5073832;28;20201;-61
2023/11/27 11:20:49;;;;;;;1.65;0.75;;;18.80;53.90;;;;;;5073903;28;20193;-61
2023/11/27 11:23:28;;;;;;;1.98;0.90;;;18.80;53.90;;;;;;5073334;28;20592;-59
2023/11/27 11:26:32;;;;;;;2.78;1.00;;;18.90;54.00;;;;;;5074171;28;20194;-61
2023/11/27 11:29:11;;;;;;;1.80;0.90;;;19.00;53.90;;;;;;5074221;28;20210;-62
2023/11/27 11:31:43;;;;;;;2.08;0.90;;;19.00;54.10;;;;;;5073767;28;20195;-62
2023/11/27 11:34:20;;;;;;;2.08;1.00;;;19.00;53.90;;;;;;5074031;28;20223;-59
2023/11/27 11:36:51;;;;;;;3.67;1.40;;;19.00;53.20;;;;;;5073968;28;20288;-62
2023/11/27 11:39:19;;;;;;;2.85;0.90;;;19.10;53.10;;;;;;5073271;28;20218;-60
2023/11/27 11:41:48;;;;;;;2.67;1.00;;;19.10;53.00;;;;;;5073790;28;20290;-58
2023/11/27 11:44:20;;;;;;;4.53;1.00;;;19.10;52.80;;;;;;5073395;28;20765;-61
2023/11/27 11:46:46;;;;;;;1.95;1.00;;;19.10;52.80;;;;;;5073285;28;20233;-62
2023/11/27 11:49:18;;;;;;;1.83;1.10;;;19.20;52.70;;;;;;5073441;28;20700;-61
2023/11/27 11:52:02;;;;;;;4.18;0.98;;;19.10;52.50;;;;;;5073532;28;20187;-61
2023/11/27 11:54:34;;;;;;;2.80;1.00;;;19.20;52.60;;;;;;5073233;28;20305;-62
2023/11/27 11:57:20;;;;;;;2.22;0.90;;;19.20;52.50;;;;;;5073483;28;20183;-60
2023/11/27 11:59:50;;;;;;;2.85;0.85;;;19.10;52.40;;;;;;5073162;28;20276;-62
2023/11/27 12:02:19;;;;;;;2.40;0.95;;;19.10;52.30;;;;;;5073153;28;20281;-61
2023/11/27 12:04:51;;;;;;;2.55;1.00;;;19.10;52.30;;;;;;5073339;28;20234;-61
2023/11/27 12:07:19;;;;;;;1.85;1.00;;;19.20;52.30;;;;;;5072927;28;20222;-60
2023/11/27 12:09:49;;;;;;;1.63;0.90;;;19.20;52.20;;;;;;5072906;28;20317;-61
2023/11/27 12:12:16;;;;;;;2.30;0.95;;;19.10;52.70;;;;;;5053125;28;20292;-60
2023/11/27 12:14:44;;;;;;;2.60;1.00;;;19.20;52.00;;;;;;5052872;28;20601;-59
2023/11/27 12:17:15;;;;;;;1.58;0.90;;;19.10;51.90;;;;;;5066231;28;20193;-60
2023/11/27 12:19:43;;;;;;;1.52;1.00;;;19.10;51.80;;;;;;5073016;28;20225;-59
2023/11/27 12:22:12;;;;;;;2.20;0.90;;;19.10;51.70;;;;;;5072289;28;20561;-60
2023/11/27 12:24:44;;;;;;;1.98;0.93;;;19.20;51.80;;;;;;5072992;28;20663;-62
2023/11/27 12:27:11;;;;;;;2.40;1.00;;;19.10;52.40;;;;;;5072926;28;20278;-61
2023/11/27 12:29:38;;;;;;;5.40;1.00;;;19.10;51.70;;;;;;5072532;28;20712;-57
2023/11/27 12:32:07;;;;;;;1.55;0.90;;;19.20;51.70;;;;;;5072817;28;20278;-59
2023/11/27 12:34:40;;;;;;;1.52;1.00;;;19.20;51.70;;;;;;5072730;28;20218;-62
2023/11/27 12:37:08;;;;;;;3.03;0.80;;;19.20;51.60;;;;;;5072246;28;20187;-61
2023/11/27 12:39:37;;;;;;;3.17;0.98;;;19.20;51.40;;;;;;5072721;28;20221;-60
2023/11/27 12:42:13;;;;;;;2.03;0.82;;;19.20;51.40;;;;;;5072543;28;20197;-62
2023/11/27 12:44:46;;;;;;;2.50;1.05;;;19.20;51.30;;;;;;5071856;28;20711;-61
2023/11/27 12:47:18;;;;;;;1.50;0.73;;;19.20;51.80;;;;;;5072597;28;20195;-61
2023/11/27 12:49:51;;;;;;;2.22;1.10;;;19.20;51.20;;;;;;5072619;28;20214;-60
2023/11/27 12:52:18;;;;;;;1.52;0.75;;;19.20;51.20;;;;;;5071805;28;20675;-62